Time;durP1;ratioP1;P1;durP2;ratioP2;P2;SDS_P1;SDS_P2;PMS_P1;PMS_P2;Temp;Humidity;BMP_temperature;BMP_pressure;BME280_temperature;BME280_humidity;BME280_pressure;Samples;Min_cycle;Max_cycle;Signal;HPM_P1;HPM_P2
2023/05/30 00:03:35;;;;;;;;;;;21.00;52.60;;;;;;10327636;28;1905;-69
2023/05/30 00:08:30;;;;;;;;;;;21.00;52.50;;;;;;10331862;28;862;-70
2023/05/30 00:13:28;;;;;;;;;;;21.00;52.50;;;;;;10332392;28;798;-70
2023/05/30 00:18:23;;;;;;;;;;;21.00;52.50;;;;;;10331615;28;866;-70
2023/05/30 00:23:20;;;;;;;;;;;21.00;52.50;;;;;;10332031;28;1905;-70
2023/05/30 00:28:15;;;;;;;;;;;21.00;52.50;;;;;;10331738;28;805;-70
2023/05/30 00:33:13;;;;;;;;;;;20.90;52.40;;;;;;10330294;28;904;-70
2023/05/30 00:38:08;;;;;;;;;;;20.90;52.40;;;;;;10331172;28;1264;-70
2023/05/30 00:43:04;;;;;;;;;;;20.90;52.40;;;;;;10331250;28;1909;-70
2023/05/30 00:47:59;;;;;;;;;;;20.90;52.40;;;;;;10330526;28;836;-69
2023/05/30 00:52:54;;;;;;;;;;;20.90;52.40;;;;;;10330957;28;948;-69
2023/05/30 00:57:51;;;;;;;;;;;20.90;52.50;;;;;;10330134;28;922;-70
2023/05/30 01:02:47;;;;;;;;;;;20.90;52.50;;;;;;10329231;28;1898;-69
2023/05/30 01:07:43;;;;;;;;;;;20.90;52.50;;;;;;10329733;28;868;-70
2023/05/30 01:12:40;;;;;;;;;;;20.90;52.50;;;;;;10329276;28;877;-70
2023/05/30 01:17:36;;;;;;;;;;;20.90;53.10;;;;;;10329956;28;834;-69
2023/05/30 01:22:32;;;;;;;;;;;20.90;52.50;;;;;;10329794;28;1906;-69
2023/05/30 01:27:28;;;;;;;;;;;20.90;52.50;;;;;;10328912;28;877;-69
2023/05/30 01:32:23;;;;;;;;;;;20.90;52.50;;;;;;10328793;28;943;-70
2023/05/30 01:37:18;;;;;;;;;;;20.90;52.50;;;;;;10327883;28;1279;-69
2023/05/30 01:42:14;;;;;;;;;;;20.90;52.60;;;;;;10328251;28;1913;-70
2023/05/30 01:47:09;;;;;;;;;;;20.80;52.60;;;;;;10328721;28;857;-70
2023/05/30 01:52:05;;;;;;;;;;;20.80;52.50;;;;;;10328509;28;890;-69
2023/05/30 01:57:01;;;;;;;;;;;20.80;52.50;;;;;;10328563;28;817;-69
2023/05/30 02:01:57;;;;;;;;;;;20.80;52.50;;;;;;10327370;28;1902;-70
2023/05/30 02:06:52;;;;;;;;;;;20.80;52.50;;;;;;10326689;28;1216;-69
2023/05/30 02:11:48;;;;;;;;;;;20.80;52.60;;;;;;10327134;28;968;-70
2023/05/30 02:16:44;;;;;;;;;;;20.80;52.50;;;;;;10326969;28;858;-69
2023/05/30 02:21:40;;;;;;;;;;;20.80;52.60;;;;;;10326931;28;1967;-70
2023/05/30 02:26:35;;;;;;;;;;;20.80;52.60;;;;;;10327163;28;919;-70
2023/05/30 02:31:31;;;;;;;;;;;20.70;52.50;;;;;;10327139;28;867;-70
2023/05/30 02:36:26;;;;;;;;;;;20.80;52.60;;;;;;10326704;28;1381;-69
2023/05/30 02:41:22;;;;;;;;;;;20.70;52.60;;;;;;10326244;28;1971;-70
2023/05/30 02:46:18;;;;;;;;;;;20.70;52.60;;;;;;10326651;28;871;-69
2023/05/30 02:51:13;;;;;;;;;;;20.70;52.60;;;;;;10325346;28;908;-70
2023/05/30 02:56:08;;;;;;;;;;;20.70;52.60;;;;;;10327202;28;872;-69
2023/05/30 03:01:05;;;;;;;;;;;20.70;52.60;;;;;;10326265;28;1902;-70
2023/05/30 03:06:01;;;;;;;;;;;20.70;52.60;;;;;;10326449;28;762;-69
2023/05/30 03:10:56;;;;;;;;;;;20.70;52.70;;;;;;10325431;28;902;-70
2023/05/30 03:15:51;;;;;;;;;;;20.70;52.80;;;;;;10325998;28;786;-69
2023/05/30 03:20:47;;;;;;;;;;;20.70;52.80;;;;;;10325237;28;1906;-70
2023/05/30 03:25:42;;;;;;;;;;;20.60;52.70;;;;;;10326012;28;790;-69
2023/05/30 03:30:38;;;;;;;;;;;20.60;52.60;;;;;;10325121;28;771;-69
2023/05/30 03:35:33;;;;;;;;;;;20.60;52.60;;;;;;10325281;28;1183;-69
2023/05/30 03:40:28;;;;;;;;;;;20.60;52.60;;;;;;10333548;28;1910;-69
2023/05/30 03:45:24;;;;;;;;;;;20.60;52.60;;;;;;10332910;28;1003;-71
2023/05/30 03:50:19;;;;;;;;;;;20.70;52.60;;;;;;10333319;28;777;-69
2023/05/30 03:55:15;;;;;;;;;;;20.70;52.60;;;;;;10333103;28;867;-69
2023/05/30 04:00:12;;;;;;;;;;;20.70;52.60;;;;;;10332787;28;1959;-69
2023/05/30 04:05:07;;;;;;;;;;;20.70;52.80;;;;;;10331448;28;1123;-69
2023/05/30 04:10:03;;;;;;;;;;;20.70;52.70;;;;;;10331890;28;899;-70
2023/05/30 04:14:58;;;;;;;;;;;20.70;52.70;;;;;;10331682;28;962;-70
2023/05/30 04:19:54;;;;;;;;;;;20.70;52.80;;;;;;10331530;28;1906;-70
2023/05/30 04:24:50;;;;;;;;;;;20.70;52.80;;;;;;10331355;28;996;-70
2023/05/30 04:29:46;;;;;;;;;;;20.70;52.80;;;;;;10331290;28;852;-70
2023/05/30 04:34:42;;;;;;;;;;;20.70;53.40;;;;;;10331510;28;1235;-70
2023/05/30 04:39:37;;;;;;;;;;;20.70;52.90;;;;;;10330838;28;962;-70
2023/05/30 04:44:37;;;;;;;;;;;20.70;52.80;;;;;;10330594;28;1975;-69
2023/05/30 04:49:33;;;;;;;;;;;20.70;52.80;;;;;;10329689;28;865;-70
2023/05/30 04:54:28;;;;;;;;;;;20.70;52.80;;;;;;10330947;28;943;-70
2023/05/30 04:59:23;;;;;;;;;;;20.70;52.90;;;;;;10330761;28;843;-70
2023/05/30 05:04:19;;;;;;;;;;;20.70;52.90;;;;;;10330533;28;1909;-69
2023/05/30 05:09:14;;;;;;;;;;;20.80;52.90;;;;;;10329731;28;817;-70
2023/05/30 05:14:10;;;;;;;;;;;20.70;52.80;;;;;;10329537;28;1659;-69
2023/05/30 05:19:05;;;;;;;;;;;20.70;53.00;;;;;;10329320;28;858;-69
2023/05/30 05:24:00;;;;;;;;;;;20.70;53.00;;;;;;10328653;28;1961;-69
2023/05/30 05:28:56;;;;;;;;;;;20.70;52.90;;;;;;10329566;28;823;-70
2023/05/30 05:33:51;;;;;;;;;;;20.70;52.90;;;;;;10329157;28;1010;-70
2023/05/30 05:38:47;;;;;;;;;;;20.70;53.60;;;;;;10329486;28;861;-69
2023/05/30 05:43:42;;;;;;;;;;;20.70;53.00;;;;;;10328874;28;1918;-69
2023/05/30 05:48:37;;;;;;;;;;;20.70;53.10;;;;;;10328594;28;1484;-69
2023/05/30 05:53:33;;;;;;;;;;;20.70;53.10;;;;;;10327409;28;873;-70
2023/05/30 05:58:28;;;;;;;;;;;20.70;53.00;;;;;;10327743;28;782;-70
2023/05/30 06:03:24;;;;;;;;;;;20.70;53.10;;;;;;10327479;28;1910;-67
2023/05/30 06:08:19;;;;;;;;;;;20.70;53.10;;;;;;10328718;28;877;-69
2023/05/30 06:13:14;;;;;;;;;;;20.60;53.10;;;;;;10328031;28;855;-70
2023/05/30 06:18:10;;;;;;;;;;;20.60;53.10;;;;;;10327597;28;907;-69
2023/05/30 06:23:05;;;;;;;;;;;20.60;53.00;;;;;;10327272;28;1981;-69
2023/05/30 06:28:01;;;;;;;;;;;20.60;52.90;;;;;;10327187;28;932;-70
2023/05/30 06:32:56;;;;;;;;;;;20.70;53.00;;;;;;10326635;28;941;-69
2023/05/30 06:37:51;;;;;;;;;;;20.60;53.00;;;;;;10327305;28;1312;-69
2023/05/30 06:42:47;;;;;;;;;;;20.60;53.10;;;;;;10326402;28;1981;-70
2023/05/30 06:47:42;;;;;;;;;;;20.60;53.00;;;;;;10326055;28;769;-70
2023/05/30 06:52:37;;;;;;;;;;;20.70;53.00;;;;;;10326551;28;931;-70
2023/05/30 06:57:33;;;;;;;;;;;20.70;52.90;;;;;;10325795;28;859;-68
2023/05/30 07:02:28;;;;;;;;;;;20.70;53.00;;;;;;10325950;28;1905;-68
2023/05/30 07:07:24;;;;;;;;;;;20.60;53.00;;;;;;10325578;28;785;-70
2023/05/30 07:12:19;;;;;;;;;;;20.60;53.10;;;;;;10325183;28;992;-69
2023/05/30 07:17:14;;;;;;;;;;;20.60;53.10;;;;;;10325380;28;875;-70
2023/05/30 07:22:10;;;;;;;;;;;20.60;53.00;;;;;;10326579;28;1964;-70
2023/05/30 07:27:05;;;;;;;;;;;20.60;53.00;;;;;;10324576;28;891;-70
2023/05/30 07:32:00;;;;;;;;;;;20.60;52.90;;;;;;10325682;28;955;-70
2023/05/30 07:36:56;;;;;;;;;;;20.70;53.00;;;;;;10325867;28;1145;-75
2023/05/30 07:41:51;;;;;;;;;;;20.70;52.90;;;;;;10324760;28;1968;-75
2023/05/30 07:46:46;;;;;;;;;;;20.70;52.80;;;;;;10324782;28;972;-75
2023/05/30 07:51:44;;;;;;;;;;;20.80;52.80;;;;;;10324857;28;932;-73
2023/05/30 07:56:40;;;;;;;;;;;20.80;52.80;;;;;;10324534;28;890;-75
2023/05/30 08:01:35;;;;;;;;;;;20.80;52.70;;;;;;10325074;28;1890;-75
2023/05/30 08:06:31;;;;;;;;;;;20.80;52.70;;;;;;10325559;28;953;-75
2023/05/30 08:11:26;;;;;;;;;;;20.80;52.70;;;;;;10325172;28;906;-73
2023/05/30 08:16:23;;;;;;;;;;;20.80;52.70;;;;;;10324841;28;774;-73
2023/05/30 08:21:18;;;;;;;;;;;20.80;52.70;;;;;;10324727;28;1898;-72
2023/05/30 08:26:15;;;;;;;;;;;20.80;52.70;;;;;;10329715;28;795;-72
2023/05/30 08:31:10;;;;;;;;;;;20.80;52.60;;;;;;10330661;28;945;-72
2023/05/30 08:36:06;;;;;;;;;;;20.80;52.70;;;;;;10330440;28;1292;-72
2023/05/30 08:41:01;;;;;;;;;;;20.80;52.70;;;;;;10330783;28;1906;-72
2023/05/30 08:45:56;;;;;;;;;;;20.80;52.80;;;;;;10330704;28;925;-72
2023/05/30 08:50:52;;;;;;;;;;;20.70;52.70;;;;;;10331788;28;857;-72
2023/05/30 08:55:47;;;;;;;;;;;20.80;52.70;;;;;;10330895;28;849;-72
2023/05/30 09:00:42;;;;;;;;;;;20.80;52.70;;;;;;10331002;28;1901;-72
2023/05/30 09:05:38;;;;;;;;;;;20.70;52.60;;;;;;10329302;28;898;-72
2023/05/30 09:10:33;;;;;;;;;;;20.70;52.70;;;;;;10329721;28;817;-72
2023/05/30 09:15:29;;;;;;;;;;;20.70;52.70;;;;;;10329630;28;801;-75
2023/05/30 09:20:24;;;;;;;;;;;20.70;52.70;;;;;;10329069;28;1902;-82
2023/05/30 09:25:20;;;;;;;;;;;20.70;52.70;;;;;;10329063;28;797;-83
2023/05/30 09:30:16;;;;;;;;;;;20.60;52.70;;;;;;10328667;28;861;-74
2023/05/30 09:35:12;;;;;;;;;;;20.70;52.80;;;;;;10328912;28;1372;-76
2023/05/30 09:40:07;;;;;;;;;;;20.60;52.80;;;;;;10329012;28;1906;-75
2023/05/30 09:45:03;;;;;;;;;;;20.60;52.80;;;;;;10329624;28;1553;-75
2023/05/30 09:50:01;;;;;;;;;;;20.60;52.80;;;;;;10328121;28;775;-75
2023/05/30 09:54:57;;;;;;;;;;;20.60;52.90;;;;;;10328467;28;910;-75
2023/05/30 09:59:52;;;;;;;;;;;20.60;52.80;;;;;;10327733;28;934;-76
2023/05/30 10:04:47;;;;;;;;;;;20.60;52.80;;;;;;10328710;28;1902;-75
2023/05/30 10:09:43;;;;;;;;;;;20.60;52.80;;;;;;10328002;28;804;-77
2023/05/30 10:14:39;;;;;;;;;;;20.60;52.90;;;;;;10327126;28;782;-73
2023/05/30 10:19:34;;;;;;;;;;;20.60;52.90;;;;;;10326977;28;845;-73
2023/05/30 10:24:30;;;;;;;;;;;20.60;52.90;;;;;;10326670;28;1969;-75
2023/05/30 10:29:25;;;;;;;;;;;20.60;52.90;;;;;;10326621;28;795;-76
2023/05/30 10:34:20;;;;;;;;;;;20.60;52.90;;;;;;10326699;28;1316;-75
2023/05/30 10:39:16;;;;;;;;;;;20.60;52.90;;;;;;10326951;28;813;-74
2023/05/30 10:44:19;;;;;;;;;;;20.50;52.90;;;;;;10326761;28;1973;-75
2023/05/30 10:49:14;;;;;;;;;;;20.60;52.90;;;;;;10326409;28;872;-75
2023/05/30 10:54:10;;;;;;;;;;;20.60;52.90;;;;;;10325900;28;845;-75
2023/05/30 10:59:05;;;;;;;;;;;20.60;52.80;;;;;;10326619;28;833;-75
2023/05/30 11:04:00;;;;;;;;;;;20.60;52.80;;;;;;10326371;28;1902;-76
2023/05/30 11:08:56;;;;;;;;;;;20.60;52.80;;;;;;10326801;28;878;-75
2023/05/30 11:13:52;;;;;;;;;;;20.60;52.90;;;;;;10326702;28;855;-75
2023/05/30 11:18:50;;;;;;;;;;;20.60;52.90;;;;;;10325633;28;850;-75
2023/05/30 11:23:45;;;;;;;;;;;20.60;53.00;;;;;;10325802;28;1946;-75
2023/05/30 11:28:40;;;;;;;;;;;20.60;52.90;;;;;;10325810;28;806;-75
2023/05/30 11:33:36;;;;;;;;;;;20.50;52.90;;;;;;10325673;28;862;-75
2023/05/30 11:38:31;;;;;;;;;;;20.50;52.90;;;;;;10326262;28;1307;-75
2023/05/30 11:43:27;;;;;;;;;;;20.50;52.90;;;;;;10324837;28;1914;-75
2023/05/30 11:48:22;;;;;;;;;;;20.50;53.00;;;;;;10325413;28;897;-75
2023/05/30 11:53:18;;;;;;;;;;;20.50;52.90;;;;;;10324756;28;995;-75
2023/05/30 11:58:14;;;;;;;;;;;20.50;53.00;;;;;;10328194;28;789;-75
2023/05/30 12:03:11;;;;;;;;;;;20.50;53.00;;;;;;10332311;28;1965;-75
2023/05/30 12:08:07;;;;;;;;;;;20.50;53.00;;;;;;10332085;28;926;-70
2023/05/30 12:13:02;;;;;;;;;;;20.60;52.90;;;;;;10331295;28;940;-68
2023/05/30 12:17:58;;;;;;;;;;;20.60;52.90;;;;;;10331902;28;842;-68
2023/05/30 12:22:53;;;;;;;;;;;20.60;53.00;;;;;;10330377;28;1906;-68
2023/05/30 12:27:48;;;;;;;;;;;20.60;53.00;;;;;;10330168;28;925;-69
2023/05/30 12:32:44;;;;;;;;;;;20.60;53.00;;;;;;10331174;28;941;-69
2023/05/30 12:37:40;;;;;;;;;;;20.50;53.00;;;;;;10330805;28;1109;-69
2023/05/30 12:42:38;;;;;;;;;;;20.60;53.10;;;;;;10331505;28;1972;-69
2023/05/30 12:47:33;;;;;;;;;;;20.50;53.00;;;;;;10330265;28;829;-69
2023/05/30 12:52:29;;;;;;;;;;;20.50;53.00;;;;;;10313231;28;865;-75
2023/05/30 12:57:25;;;;;;;;;;;20.60;53.10;;;;;;10330089;28;878;-75
2023/05/30 13:02:24;;;;;;;;;;;20.50;53.10;;;;;;10329813;28;1902;-75
2023/05/30 13:07:19;;;;;;;;;;;20.60;53.10;;;;;;10331319;28;1691;-74
2023/05/30 13:12:14;;;;;;;;;;;20.60;53.00;;;;;;10329441;28;782;-75
2023/05/30 13:17:10;;;;;;;;;;;20.70;52.90;;;;;;10329302;28;794;-75
2023/05/30 13:22:05;;;;;;;;;;;20.70;52.80;;;;;;10329024;28;1957;-75
2023/05/30 13:27:01;;;;;;;;;;;20.70;52.90;;;;;;10329568;28;815;-75
2023/05/30 13:31:56;;;;;;;;;;;20.70;52.80;;;;;;10328668;28;915;-75
2023/05/30 13:36:52;;;;;;;;;;;20.80;52.80;;;;;;10328603;28;1132;-76
2023/05/30 13:41:48;;;;;;;;;;;20.90;52.70;;;;;;10327785;28;1968;-75
2023/05/30 13:46:43;;;;;;;;;;;20.80;52.70;;;;;;10328391;28;854;-75
2023/05/30 13:51:38;;;;;;;;;;;20.90;52.70;;;;;;10327951;28;872;-75
2023/05/30 13:56:34;;;;;;;;;;;20.90;52.70;;;;;;10328231;28;918;-75
2023/05/30 14:01:30;;;;;;;;;;;20.90;52.70;;;;;;10327663;28;1902;-72
2023/05/30 14:06:25;;;;;;;;;;;20.90;52.60;;;;;;10328065;28;866;-69
2023/05/30 14:11:21;;;;;;;;;;;21.00;52.70;;;;;;10327362;28;931;-69
2023/05/30 14:16:16;;;;;;;;;;;21.00;52.80;;;;;;10327177;28;794;-69
2023/05/30 14:21:12;;;;;;;;;;;21.00;52.80;;;;;;10326052;28;1902;-69
2023/05/30 14:26:07;;;;;;;;;;;21.10;52.80;;;;;;10327529;28;925;-69
2023/05/30 14:31:03;;;;;;;;;;;21.10;52.90;;;;;;10326634;28;829;-69
2023/05/30 14:35:58;;;;;;;;;;;21.10;52.90;;;;;;10326220;28;1372;-69
2023/05/30 14:40:54;;;;;;;;;;;21.10;52.90;;;;;;10325656;28;1982;-69
2023/05/30 14:45:49;;;;;;;;;;;21.10;52.90;;;;;;10327380;28;884;-69
2023/05/30 14:50:45;;;;;;;;;;;21.20;52.90;;;;;;10326058;28;786;-69
2023/05/30 14:55:40;;;;;;;;;;;21.20;52.90;;;;;;10326539;28;838;-69
2023/05/30 15:00:36;;;;;;;;;;;21.20;52.80;;;;;;10326275;28;1961;-69
2023/05/30 15:05:31;;;;;;;;;;;21.30;52.80;;;;;;10327126;28;826;-69
2023/05/30 15:10:26;;;;;;;;;;;21.30;52.80;;;;;;10325543;28;853;-69
2023/05/30 15:15:22;;;;;;;;;;;21.30;52.80;;;;;;10325340;28;866;-69
2023/05/30 15:20:17;;;;;;;;;;;21.30;52.90;;;;;;10325255;28;1898;-69
2023/05/30 15:25:13;;;;;;;;;;;21.30;52.80;;;;;;10325890;28;834;-69
2023/05/30 15:30:08;;;;;;;;;;;21.40;52.80;;;;;;10325766;28;834;-69
2023/05/30 15:35:03;;;;;;;;;;;21.40;52.70;;;;;;10331540;28;1124;-69
2023/05/30 15:39:59;;;;;;;;;;;21.40;52.60;;;;;;10332798;28;936;-69
2023/05/30 15:44:54;;;;;;;;;;;21.40;52.60;;;;;;10333024;28;2001;-68
2023/05/30 15:49:50;;;;;;;;;;;21.50;52.60;;;;;;10332979;28;917;-69
2023/05/30 15:54:45;;;;;;;;;;;21.50;52.50;;;;;;10332751;28;931;-69
2023/05/30 15:59:41;;;;;;;;;;;21.40;52.60;;;;;;10332564;28;833;-69
2023/05/30 16:04:36;;;;;;;;;;;21.30;52.60;;;;;;10332861;28;1910;-69
2023/05/30 16:09:33;;;;;;;;;;;21.40;52.70;;;;;;10331475;28;962;-69
2023/05/30 16:14:28;;;;;;;;;;;21.40;52.60;;;;;;10331891;28;782;-69
2023/05/30 16:19:25;;;;;;;;;;;21.40;52.50;;;;;;10331730;28;834;-69
2023/05/30 16:24:20;;;;;;;;;;;21.40;52.50;;;;;;10331456;28;1902;-69
2023/05/30 16:29:16;;;;;;;;;;;21.50;52.40;;;;;;10331493;28;818;-69
2023/05/30 16:34:11;;;;;;;;;;;21.50;52.30;;;;;;10331052;28;1283;-69
2023/05/30 16:39:08;;;;;;;;;;;21.60;52.40;;;;;;10331123;28;1032;-69
2023/05/30 16:44:04;;;;;;;;;;;21.60;52.40;;;;;;10329754;28;1914;-69
2023/05/30 16:49:00;;;;;;;;;;;21.40;52.50;;;;;;10330616;28;898;-69
2023/05/30 16:53:55;;;;;;;;;;;21.30;52.70;;;;;;10330447;28;879;-69
2023/05/30 16:58:51;;;;;;;;;;;21.30;52.70;;;;;;10330910;28;853;-69
2023/05/30 17:03:47;;;;;;;;;;;21.30;52.80;;;;;;10329860;28;1902;-69
2023/05/30 17:08:43;;;;;;;;;;;21.20;52.90;;;;;;10329892;28;896;-69
2023/05/30 17:13:38;;;;;;;;;;;21.10;52.90;;;;;;10329955;28;868;-69
2023/05/30 17:18:34;;;;;;;;;;;21.10;52.90;;;;;;10329529;28;964;-69
2023/05/30 17:23:29;;;;;;;;;;;21.10;53.00;;;;;;10329912;28;1965;-69
2023/05/30 17:28:25;;;;;;;;;;;21.10;52.90;;;;;;10329246;28;867;-69
2023/05/30 17:33:20;;;;;;;;;;;21.10;52.90;;;;;;10329023;28;847;-69
2023/05/30 17:38:16;;;;;;;;;;;21.10;53.00;;;;;;10329433;28;1352;-71
2023/05/30 17:43:11;;;;;;;;;;;21.10;53.00;;;;;;10329143;28;1913;-69
2023/05/30 17:48:10;;;;;;;;;;;21.10;53.00;;;;;;10328963;28;794;-69
2023/05/30 17:53:05;;;;;;;;;;;21.10;53.00;;;;;;10328771;28;849;-69
2023/05/30 17:58:01;;;;;;;;;;;21.00;52.90;;;;;;10328411;28;838;-69
2023/05/30 18:02:56;;;;;;;;;;;21.10;53.00;;;;;;10327710;28;1933;-69
2023/05/30 18:07:52;;;;;;;;;;;21.10;53.00;;;;;;10327811;28;893;-69
2023/05/30 18:12:47;;;;;;;;;;;21.10;52.90;;;;;;10327295;28;786;-69
2023/05/30 18:17:42;;;;;;;;;;;21.20;52.80;;;;;;10326614;28;829;-69
2023/05/30 18:22:38;;;;;;;;;;;21.30;52.70;;;;;;10326281;28;1898;-69
2023/05/30 18:27:33;;;;;;;;;;;21.30;52.60;;;;;;10326838;28;847;-69
2023/05/30 18:32:28;;;;;;;;;;;21.30;52.60;;;;;;10326451;28;933;-69
2023/05/30 18:37:24;;;;;;;;;;;21.30;52.70;;;;;;10327215;28;1374;-69
2023/05/30 18:42:19;;;;;;;;;;;21.20;52.70;;;;;;10326189;28;1963;-69
2023/05/30 18:47:15;;;;;;;;;;;21.30;52.70;;;;;;10326719;28;825;-69
2023/05/30 18:52:11;;;;;;;;;;;21.30;52.80;;;;;;10326015;28;880;-69
2023/05/30 18:57:07;;;;;;;;;;;21.30;52.70;;;;;;10325344;28;873;-69
2023/05/30 19:02:02;;;;;;;;;;;21.20;52.70;;;;;;10326413;28;1955;-69
2023/05/30 19:06:58;;;;;;;;;;;21.20;52.80;;;;;;10325190;28;904;-69
2023/05/30 19:11:53;;;;;;;;;;;21.10;52.80;;;;;;10326108;28;886;-69
2023/05/30 19:16:49;;;;;;;;;;;21.10;52.90;;;;;;10326241;28;999;-69
2023/05/30 19:21:44;;;;;;;;;;;21.10;52.90;;;;;;10325998;28;1897;-69
2023/05/30 19:26:39;;;;;;;;;;;21.10;53.00;;;;;;10325314;28;849;-69
2023/05/30 19:31:35;;;;;;;;;;;21.10;53.00;;;;;;10325201;28;753;-69
2023/05/30 19:36:30;;;;;;;;;;;21.10;53.00;;;;;;10326235;28;1336;-69
2023/05/30 19:41:26;;;;;;;;;;;21.10;53.10;;;;;;10324936;28;1963;-69
2023/05/30 19:46:22;;;;;;;;;;;21.00;53.00;;;;;;10324830;28;933;-69
2023/05/30 19:51:17;;;;;;;;;;;21.00;53.00;;;;;;10324838;28;778;-70
2023/05/30 19:56:13;;;;;;;;;;;21.00;53.00;;;;;;10324748;28;921;-74
2023/05/30 20:01:08;;;;;;;;;;;21.00;53.00;;;;;;10325159;28;1897;-74
2023/05/30 20:06:03;;;;;;;;;;;21.10;53.00;;;;;;10323835;28;953;-74
2023/05/30 20:10:59;;;;;;;;;;;21.10;52.90;;;;;;10324756;28;793;-73
2023/05/30 20:15:54;;;;;;;;;;;21.10;52.90;;;;;;10324451;28;979;-74
2023/05/30 20:20:50;;;;;;;;;;;21.10;52.80;;;;;;10328462;28;1961;-74
2023/05/30 20:25:45;;;;;;;;;;;21.10;52.80;;;;;;10331615;28;901;-74
2023/05/30 20:30:41;;;;;;;;;;;21.10;52.80;;;;;;10331355;28;898;-74
2023/05/30 20:35:36;;;;;;;;;;;21.10;52.80;;;;;;10331772;28;1297;-74
2023/05/30 20:40:31;;;;;;;;;;;21.10;52.80;;;;;;10331581;28;1980;-74
2023/05/30 20:45:27;;;;;;;;;;;21.10;52.80;;;;;;10330239;28;869;-74
2023/05/30 20:50:22;;;;;;;;;;;21.10;52.80;;;;;;10330692;28;759;-74
2023/05/30 20:55:17;;;;;;;;;;;21.10;52.90;;;;;;10331130;28;894;-74
2023/05/30 21:00:13;;;;;;;;;;;21.10;52.90;;;;;;10330954;28;762;-74
2023/05/30 21:05:08;;;;;;;;;;;21.10;52.80;;;;;;10330723;28;1906;-74
2023/05/30 21:10:04;;;;;;;;;;;21.10;52.80;;;;;;10330964;28;795;-74
2023/05/30 21:14:59;;;;;;;;;;;21.10;52.90;;;;;;10330383;28;874;-74
2023/05/30 21:19:55;;;;;;;;;;;21.00;52.80;;;;;;10329651;28;778;-74
2023/05/30 21:24:50;;;;;;;;;;;21.10;52.80;;;;;;10329378;28;1969;-74
2023/05/30 21:29:46;;;;;;;;;;;21.10;52.80;;;;;;10328137;28;894;-73
2023/05/30 21:34:41;;;;;;;;;;;21.10;52.80;;;;;;10328940;28;1230;-74
2023/05/30 21:39:36;;;;;;;;;;;21.10;52.80;;;;;;10328830;28;825;-74
2023/05/30 21:44:32;;;;;;;;;;;21.10;52.80;;;;;;10328616;28;1918;-74
2023/05/30 21:49:27;;;;;;;;;;;21.10;52.80;;;;;;10328988;28;843;-74
2023/05/30 21:54:23;;;;;;;;;;;21.10;52.80;;;;;;10328130;28;870;-74
2023/05/30 21:59:18;;;;;;;;;;;21.10;52.90;;;;;;10328609;28;775;-74
2023/05/30 22:04:13;;;;;;;;;;;21.00;52.80;;;;;;10327719;28;1910;-74
2023/05/30 22:09:09;;;;;;;;;;;21.00;52.80;;;;;;10328199;28;806;-74
2023/05/30 22:14:04;;;;;;;;;;;21.00;52.90;;;;;;10327686;28;972;-74
2023/05/30 22:18:59;;;;;;;;;;;21.10;52.90;;;;;;10327237;28;872;-74
2023/05/30 22:23:55;;;;;;;;;;;21.00;52.80;;;;;;10327549;28;1886;-73
2023/05/30 22:28:50;;;;;;;;;;;21.00;52.80;;;;;;10327416;28;849;-74
2023/05/30 22:33:45;;;;;;;;;;;21.00;52.90;;;;;;10326555;28;1037;-74
2023/05/30 22:38:41;;;;;;;;;;;21.00;52.90;;;;;;10326722;28;915;-74
2023/05/30 22:43:36;;;;;;;;;;;21.00;52.80;;;;;;10325448;28;1976;-74
2023/05/30 22:48:32;;;;;;;;;;;21.00;52.80;;;;;;10326452;28;1633;-74
2023/05/30 22:53:27;;;;;;;;;;;21.00;52.80;;;;;;10326654;28;894;-74
2023/05/30 22:58:23;;;;;;;;;;;21.10;52.80;;;;;;10325954;28;829;-74
2023/05/30 23:03:18;;;;;;;;;;;21.10;52.80;;;;;;10325807;28;1901;-74
2023/05/30 23:08:13;;;;;;;;;;;21.10;52.80;;;;;;10326782;28;781;-74
2023/05/30 23:13:10;;;;;;;;;;;21.00;52.70;;;;;;10325631;28;901;-74
2023/05/30 23:18:05;;;;;;;;;;;21.10;52.80;;;;;;10326299;28;843;-74
2023/05/30 23:23:01;;;;;;;;;;;21.00;52.80;;;;;;10325321;28;1910;-74
2023/05/30 23:27:58;;;;;;;;;;;21.00;52.80;;;;;;10325324;28;956;-74
2023/05/30 23:32:54;;;;;;;;;;;21.00;52.90;;;;;;10325244;28;851;-74
2023/05/30 23:37:49;;;;;;;;;;;21.00;52.90;;;;;;10324424;28;1250;-74
2023/05/30 23:42:44;;;;;;;;;;;21.00;52.90;;;;;;10325311;28;1921;-74
2023/05/30 23:47:40;;;;;;;;;;;21.00;52.80;;;;;;10324930;28;1048;-73
2023/05/30 23:52:35;;;;;;;;;;;21.00;52.80;;;;;;10325140;28;767;-74
2023/05/30 23:57:31;;;;;;;;;;;21.00;52.80;;;;;;10333381;28;810;-74
